createdAt,value
2022-08-08T00:00:52.133Z,1018.41
2022-08-08T00:00:52.539Z,1018.43
2022-08-08T00:01:52.631Z,1018.41
2022-08-08T00:02:33.094Z,1018.38
2022-08-08T00:03:31.440Z,1018.36
2022-08-08T00:04:27.785Z,1018.40
2022-08-08T00:05:43.820Z,1018.35
2022-08-08T00:06:28.288Z,1018.37
2022-08-08T00:07:25.805Z,1018.37
2022-08-08T00:08:24.786Z,1018.40
2022-08-08T00:09:24.778Z,1018.40
2022-08-08T00:10:28.616Z,1018.40
2022-08-08T00:11:24.751Z,1018.39
2022-08-08T00:12:24.859Z,1018.39
2022-08-08T00:14:15.290Z,1018.40
2022-08-08T00:14:48.674Z,1018.37
2022-08-08T00:15:55.925Z,1018.38
2022-08-08T00:16:25.698Z,1018.41
2022-08-08T00:17:24.696Z,1018.39
2022-08-08T00:18:24.675Z,1018.40
2022-08-08T00:19:24.663Z,1018.41
2022-08-08T00:20:24.655Z,1018.37
2022-08-08T00:21:24.690Z,1018.40
2022-08-08T00:22:24.643Z,1018.40
2022-08-08T00:23:28.352Z,1018.35
2022-08-08T00:24:29.860Z,1018.37
2022-08-08T00:25:24.614Z,1018.39
2022-08-08T00:26:29.024Z,1018.40
2022-08-08T00:27:24.589Z,1018.39
2022-08-08T00:28:35.665Z,1018.36
2022-08-08T00:29:45.031Z,1018.39
2022-08-08T00:30:25.550Z,1018.41
2022-08-08T00:32:29.297Z,1018.38
2022-08-08T00:32:35.420Z,1018.33
2022-08-08T00:33:25.514Z,1018.34
2022-08-08T00:34:26.894Z,1018.38
2022-08-08T00:35:24.492Z,1018.34
2022-08-08T00:36:25.773Z,1018.38
2022-08-08T00:37:47.332Z,1018.40
2022-08-08T00:38:32.106Z,1018.38
2022-08-08T00:39:36.228Z,1018.40
2022-08-08T00:41:07.126Z,1018.44
2022-08-08T00:41:54.827Z,1018.45
2022-08-08T00:42:32.949Z,1018.48
2022-08-08T00:43:25.456Z,1018.47
2022-08-08T00:44:25.395Z,1018.47
2022-08-08T00:45:27.169Z,1018.49
2022-08-08T00:46:25.370Z,1018.48
2022-08-08T00:47:24.371Z,1018.46
2022-08-08T00:48:29.900Z,1018.48
2022-08-08T00:49:27.340Z,1018.44
2022-08-08T00:50:25.328Z,1018.48
2022-08-08T00:51:24.320Z,1018.47
2022-08-08T00:52:39.354Z,1018.48
2022-08-08T00:53:25.307Z,1018.46
2022-08-08T00:54:25.170Z,1018.49
2022-08-08T00:55:52.617Z,1018.49
2022-08-08T00:56:29.485Z,1018.49
2022-08-08T00:57:29.553Z,1018.45
2022-08-08T00:58:30.630Z,1018.47
2022-08-08T00:59:44.551Z,1018.45
2022-08-08T01:00:25.819Z,1018.47
2022-08-08T01:01:37.436Z,1018.47
2022-08-08T01:03:57.271Z,1018.45
2022-08-08T01:04:01.734Z,1018.48
2022-08-08T01:04:29.620Z,1018.48
2022-08-08T01:05:42.274Z,1018.46
2022-08-08T01:06:27.707Z,1018.43
2022-08-08T01:07:24.156Z,1018.41
2022-08-08T01:08:28.904Z,1018.47
2022-08-08T01:09:35.669Z,1018.43
2022-08-08T01:10:25.111Z,1018.46
2022-08-08T01:11:24.102Z,1018.46
2022-08-08T01:12:29.494Z,1018.42
2022-08-08T01:13:43.660Z,1018.44
2022-08-08T01:14:53.297Z,1018.42
2022-08-08T01:15:37.327Z,1018.41
2022-08-08T01:16:27.758Z,1018.40
2022-08-08T01:17:25.256Z,1018.36
2022-08-08T01:18:53.843Z,1018.41
2022-08-08T01:19:41.795Z,1018.39
2022-08-08T01:20:25.004Z,1018.39
2022-08-08T01:22:01.830Z,1018.36
2022-08-08T01:22:35.408Z,1018.38
2022-08-08T01:24:02.661Z,1018.34
2022-08-08T01:24:24.960Z,1018.38
2022-08-08T01:25:40.201Z,1018.38
2022-08-08T01:26:24.948Z,1018.42
2022-08-08T01:27:32.797Z,1018.38
2022-08-08T01:28:27.973Z,1018.41
2022-08-08T01:29:24.368Z,1018.40
2022-08-08T01:30:23.904Z,1018.43
2022-08-08T01:32:06.354Z,1018.42
2022-08-08T01:32:25.768Z,1018.40
2022-08-08T01:33:27.866Z,1018.39
2022-08-08T01:34:28.969Z,1018.41
2022-08-08T01:35:29.574Z,1018.41
2022-08-08T01:36:24.847Z,1018.40
2022-08-08T01:37:56.606Z,1018.39
2022-08-08T01:38:24.811Z,1018.39
2022-08-08T01:39:27.877Z,1018.38
2022-08-08T01:40:23.791Z,1018.36
2022-08-08T01:41:23.794Z,1018.37
2022-08-08T01:42:36.124Z,1018.40
2022-08-08T01:43:24.756Z,1018.35
2022-08-08T01:44:26.452Z,1018.37
2022-08-08T01:45:23.734Z,1018.35
2022-08-08T01:46:23.751Z,1018.35
2022-08-08T01:48:14.005Z,1018.33
2022-08-08T01:48:30.540Z,1018.35
2022-08-08T01:49:38.464Z,1018.31
2022-08-08T01:50:26.494Z,1018.36
2022-08-08T01:51:32.052Z,1018.34
2022-08-08T01:52:32.578Z,1018.35
2022-08-08T01:54:57.618Z,1018.35
2022-08-08T01:55:46.330Z,1018.29
2022-08-08T01:56:29.128Z,1018.28
2022-08-08T01:56:31.197Z,1018.31
2022-08-08T01:57:24.603Z,1018.28
2022-08-08T01:58:38.771Z,1018.27
2022-08-08T01:59:24.581Z,1018.28
2022-08-08T02:00:24.576Z,1018.22
2022-08-08T02:01:23.644Z,1018.21
2022-08-08T02:02:34.100Z,1018.21
2022-08-08T02:03:57.375Z,1018.18
2022-08-08T02:04:24.533Z,1018.22
2022-08-08T02:05:23.578Z,1018.17
2022-08-08T02:06:31.877Z,1018.20
2022-08-08T02:07:24.499Z,1018.20
2022-08-08T02:08:23.502Z,1018.18
2022-08-08T02:10:01.274Z,1018.14
2022-08-08T02:10:29.585Z,1018.15
2022-08-08T02:11:59.972Z,1018.19
2022-08-08T02:12:24.444Z,1018.28
2022-08-08T02:13:54.834Z,1018.25
2022-08-08T02:14:24.424Z,1018.22
2022-08-08T02:15:23.411Z,1018.22
2022-08-08T02:16:23.457Z,1018.22
2022-08-08T02:17:23.388Z,1018.23
2022-08-08T02:18:23.379Z,1018.27
2022-08-08T02:19:41.761Z,1018.20
2022-08-08T02:21:01.339Z,1018.22
2022-08-08T02:21:24.359Z,1018.22
2022-08-08T02:22:28.446Z,1018.21
2022-08-08T02:23:28.933Z,1018.23
2022-08-08T02:24:24.312Z,1018.19
2022-08-08T02:25:23.302Z,1018.25
2022-08-08T02:26:24.308Z,1018.26
2022-08-08T02:27:23.281Z,1018.27
2022-08-08T02:28:25.947Z,1018.25
2022-08-08T02:29:24.261Z,1018.30
2022-08-08T02:30:25.394Z,1018.32
2022-08-08T02:31:58.034Z,1018.30
2022-08-08T02:32:32.118Z,1018.30
2022-08-08T02:33:24.213Z,1018.29
2022-08-08T02:34:27.518Z,1018.28
2022-08-08T02:35:24.193Z,1018.25
2022-08-08T02:36:23.765Z,1018.31
2022-08-08T02:37:53.358Z,1018.29
2022-08-08T02:38:25.268Z,1018.32
2022-08-08T02:39:41.963Z,1018.29
2022-08-08T02:40:24.176Z,1018.32
2022-08-08T02:42:03.741Z,1018.33
2022-08-08T02:42:36.208Z,1018.30
2022-08-08T02:44:37.710Z,1018.33
2022-08-08T02:44:39.288Z,1018.33
2022-08-08T02:45:24.085Z,1018.33
2022-08-08T02:46:23.091Z,1018.31
2022-08-08T02:47:23.062Z,1018.32
2022-08-08T02:48:25.865Z,1018.32
2022-08-08T02:49:38.254Z,1018.35
2022-08-08T02:50:24.030Z,1018.32
2022-08-08T02:51:30.058Z,1018.28
2022-08-08T02:52:35.217Z,1018.31
2022-08-08T02:53:24.295Z,1018.31
2022-08-08T02:54:22.988Z,1018.30
2022-08-08T02:55:22.976Z,1018.31
2022-08-08T02:56:22.977Z,1018.30
2022-08-08T02:57:23.997Z,1018.31
2022-08-08T02:58:22.944Z,1018.32
2022-08-08T02:59:37.059Z,1018.31
2022-08-08T03:00:31.633Z,1018.35
2022-08-08T03:01:23.951Z,1018.34
2022-08-08T03:02:28.532Z,1018.36
2022-08-08T03:05:02.764Z,1018.35
2022-08-08T03:05:05.456Z,1018.32
2022-08-08T03:05:23.865Z,1018.34
2022-08-08T03:06:24.131Z,1018.34
2022-08-08T03:07:23.856Z,1018.38
2022-08-08T03:08:22.844Z,1018.36
2022-08-08T03:09:22.827Z,1018.39
2022-08-08T03:10:32.823Z,1018.36
2022-08-08T03:11:25.669Z,1018.42
2022-08-08T03:12:36.375Z,1018.41
2022-08-08T03:15:53.596Z,1018.39
2022-08-08T03:15:57.395Z,1018.40
2022-08-08T03:16:00.904Z,1018.38
2022-08-08T03:16:35.277Z,1018.40
2022-08-08T03:17:25.780Z,1018.37
2022-08-08T03:18:31.079Z,1018.40
2022-08-08T03:19:23.725Z,1018.41
2022-08-08T03:20:22.717Z,1018.42
2022-08-08T03:21:26.841Z,1018.42
2022-08-08T03:22:48.317Z,1018.46
2022-08-08T03:23:23.865Z,1018.44
2022-08-08T03:24:23.663Z,1018.47
2022-08-08T03:25:22.649Z,1018.42
2022-08-08T03:26:23.640Z,1018.49
2022-08-08T03:27:27.135Z,1018.51
2022-08-08T03:28:22.627Z,1018.46
2022-08-08T03:29:26.919Z,1018.47
2022-08-08T03:30:23.595Z,1018.48
2022-08-08T03:31:25.669Z,1018.46
2022-08-08T03:32:22.662Z,1018.46
2022-08-08T03:33:56.233Z,1018.47
2022-08-08T03:34:23.553Z,1018.41
2022-08-08T03:35:22.556Z,1018.41
2022-08-08T03:36:27.706Z,1018.45
2022-08-08T03:38:00.238Z,1018.46
2022-08-08T03:38:58.560Z,1018.45
2022-08-08T03:39:23.545Z,1018.48
2022-08-08T03:40:29.182Z,1018.43
2022-08-08T03:42:12.303Z,1018.45
2022-08-08T03:42:38.507Z,1018.46
2022-08-08T03:43:23.453Z,1018.46
2022-08-08T03:44:25.784Z,1018.50
2022-08-08T03:46:07.146Z,1018.48
2022-08-08T03:46:25.511Z,1018.51
2022-08-08T03:47:23.414Z,1018.51
2022-08-08T03:49:08.954Z,1018.51
2022-08-08T03:49:56.906Z,1018.56
2022-08-08T03:50:24.708Z,1018.55
2022-08-08T03:51:40.230Z,1018.54
2022-08-08T03:52:23.362Z,1018.55
2022-08-08T03:53:37.848Z,1018.60
2022-08-08T03:54:41.113Z,1018.59
2022-08-08T03:55:57.914Z,1018.56
2022-08-08T03:56:31.643Z,1018.56
2022-08-08T03:58:34.293Z,1018.57
2022-08-08T03:58:34.408Z,1018.59
2022-08-08T03:59:23.391Z,1018.59
2022-08-08T04:00:22.270Z,1018.59
2022-08-08T04:01:24.065Z,1018.60
2022-08-08T04:02:33.367Z,1018.61
2022-08-08T04:03:26.086Z,1018.64
2022-08-08T04:04:30.749Z,1018.61
2022-08-08T04:05:28.518Z,1018.61
2022-08-08T04:06:23.215Z,1018.60
2022-08-08T04:07:22.195Z,1018.65
2022-08-08T04:08:33.073Z,1018.63
2022-08-08T04:09:23.172Z,1018.63
2022-08-08T04:10:22.184Z,1018.62
2022-08-08T04:11:23.405Z,1018.65
2022-08-08T04:12:22.763Z,1018.67
2022-08-08T04:13:22.131Z,1018.63
2022-08-08T04:14:34.056Z,1018.65
2022-08-08T04:15:23.106Z,1018.66
2022-08-08T04:16:23.111Z,1018.68
2022-08-08T04:17:58.090Z,1018.69
2022-08-08T04:18:23.073Z,1018.71
2022-08-08T04:19:24.930Z,1018.73
2022-08-08T04:20:28.801Z,1018.71
2022-08-08T04:21:23.541Z,1018.73
2022-08-08T04:22:24.059Z,1018.73
2022-08-08T04:23:22.022Z,1018.72
2022-08-08T04:24:29.648Z,1018.75
2022-08-08T04:25:22.996Z,1018.76
2022-08-08T04:26:25.948Z,1018.76
2022-08-08T04:28:01.437Z,1018.73
2022-08-08T04:28:37.359Z,1018.74
2022-08-08T04:29:22.952Z,1018.74
2022-08-08T04:30:21.948Z,1018.73
2022-08-08T04:31:56.770Z,1018.73
2022-08-08T04:32:30.322Z,1018.75
2022-08-08T04:33:22.911Z,1018.73
2022-08-08T04:34:21.901Z,1018.80
2022-08-08T04:35:22.889Z,1018.78
2022-08-08T04:36:21.886Z,1018.81
2022-08-08T04:37:31.659Z,1018.82
2022-08-08T04:38:22.857Z,1018.82
2022-08-08T04:39:48.021Z,1018.82
2022-08-08T04:40:24.091Z,1018.87
2022-08-08T04:41:21.915Z,1018.83
2022-08-08T04:42:21.813Z,1018.91
2022-08-08T04:43:22.188Z,1018.89
2022-08-08T04:44:21.790Z,1018.92
2022-08-08T04:45:22.779Z,1018.98
2022-08-08T04:46:21.784Z,1018.94
2022-08-08T04:47:21.757Z,1018.90
2022-08-08T04:48:22.349Z,1018.91
2022-08-08T04:49:21.733Z,1018.93
2022-08-08T04:50:23.794Z,1018.92
2022-08-08T04:51:27.991Z,1018.94
2022-08-08T04:52:25.374Z,1018.99
2022-08-08T04:54:26.893Z,1018.97
2022-08-08T04:54:38.207Z,1018.99
2022-08-08T04:55:22.669Z,1018.98
2022-08-08T04:56:21.675Z,1019.00
2022-08-08T04:57:21.649Z,1018.94
2022-08-08T04:58:21.700Z,1018.97
2022-08-08T04:59:24.282Z,1018.93
2022-08-08T05:00:22.618Z,1018.99
2022-08-08T05:01:21.652Z,1018.98
2022-08-08T05:02:28.372Z,1018.97
2022-08-08T05:04:10.326Z,1018.95
2022-08-08T05:04:22.573Z,1018.98
2022-08-08T05:05:45.121Z,1019.00
2022-08-08T05:06:25.689Z,1018.98
2022-08-08T05:07:22.566Z,1019.00
2022-08-08T05:08:21.531Z,1018.97
2022-08-08T05:09:22.521Z,1018.97
2022-08-08T05:10:21.508Z,1018.93
2022-08-08T05:11:24.388Z,1018.98
2022-08-08T05:12:21.488Z,1018.99
2022-08-08T05:13:22.476Z,1019.02
2022-08-08T05:14:21.469Z,1018.99
2022-08-08T05:15:22.424Z,1019.02
2022-08-08T05:16:48.324Z,1018.96
2022-08-08T05:17:22.433Z,1018.99
2022-08-08T05:18:21.425Z,1019.02
2022-08-08T05:20:12.462Z,1018.98
2022-08-08T05:20:24.618Z,1019.01
2022-08-08T05:21:21.403Z,1018.97
2022-08-08T05:22:21.403Z,1019.00
2022-08-08T05:23:21.369Z,1018.97
2022-08-08T05:24:26.037Z,1019.00
2022-08-08T05:25:21.579Z,1019.00
2022-08-08T05:26:21.359Z,1018.99
2022-08-08T05:27:22.324Z,1018.99
2022-08-08T05:28:56.820Z,1018.96
2022-08-08T05:29:22.303Z,1018.97
2022-08-08T05:30:21.318Z,1018.96
2022-08-08T05:32:04.571Z,1018.99
2022-08-08T05:32:27.000Z,1019.03
2022-08-08T05:33:22.259Z,1018.98
2022-08-08T05:34:21.252Z,1019.03
2022-08-08T05:35:23.399Z,1019.01
2022-08-08T05:36:25.163Z,1018.97
2022-08-08T05:37:21.218Z,1019.01
2022-08-08T05:38:31.316Z,1019.03
2022-08-08T05:39:22.221Z,1019.00
2022-08-08T05:40:21.549Z,1019.00
2022-08-08T05:41:23.305Z,1019.01
2022-08-08T05:42:25.855Z,1019.02
2022-08-08T05:43:39.605Z,1019.01
2022-08-08T05:44:22.142Z,1019.05
2022-08-08T05:45:25.112Z,1019.09
2022-08-08T05:46:22.156Z,1019.08
2022-08-08T05:47:21.406Z,1019.11
2022-08-08T05:48:28.358Z,1019.06
2022-08-08T05:49:22.093Z,1019.10
2022-08-08T05:50:21.081Z,1019.10
2022-08-08T05:51:21.078Z,1019.11
2022-08-08T05:52:31.786Z,1019.14
2022-08-08T05:53:55.271Z,1019.14
2022-08-08T05:54:28.036Z,1019.15
2022-08-08T05:55:22.030Z,1019.11
2022-08-08T05:56:21.058Z,1019.14
2022-08-08T05:58:04.789Z,1019.15
2022-08-08T05:58:27.520Z,1019.16
2022-08-08T05:59:59.975Z,1019.12
2022-08-08T06:00:23.641Z,1019.15
2022-08-08T06:01:56.190Z,1019.13
2022-08-08T06:02:21.962Z,1019.20
2022-08-08T06:03:25.405Z,1019.16
2022-08-08T06:04:22.992Z,1019.21
2022-08-08T06:05:34.644Z,1019.21
2022-08-08T06:06:23.424Z,1019.19
2022-08-08T06:07:21.903Z,1019.18
2022-08-08T06:08:28.751Z,1019.21
2022-08-08T06:09:59.842Z,1019.20
2022-08-08T06:10:24.569Z,1019.20
2022-08-08T06:11:20.861Z,1019.20
2022-08-08T06:12:30.362Z,1019.19
2022-08-08T06:13:23.271Z,1019.23
2022-08-08T06:14:20.824Z,1019.19
2022-08-08T06:15:20.813Z,1019.20
2022-08-08T06:16:25.036Z,1019.22
2022-08-08T06:17:21.831Z,1019.26
2022-08-08T06:18:22.401Z,1019.27
2022-08-08T06:19:24.049Z,1019.27
2022-08-08T06:20:21.154Z,1019.22
2022-08-08T06:21:32.467Z,1019.21
2022-08-08T06:22:37.016Z,1019.23
2022-08-08T06:23:26.281Z,1019.22
2022-08-08T06:24:23.093Z,1019.24
2022-08-08T06:25:33.416Z,1019.25
2022-08-08T06:26:43.597Z,1019.26
2022-08-08T06:27:21.679Z,1019.28
2022-08-08T06:28:20.687Z,1019.26
2022-08-08T06:29:48.885Z,1019.25
2022-08-08T06:30:28.615Z,1019.28
2022-08-08T06:31:21.657Z,1019.26
2022-08-08T06:32:21.629Z,1019.26
2022-08-08T06:33:36.678Z,1019.28
2022-08-08T06:34:26.585Z,1019.30
2022-08-08T06:36:06.137Z,1019.25
2022-08-08T06:36:21.596Z,1019.27
2022-08-08T06:37:24.756Z,1019.30
2022-08-08T06:38:21.565Z,1019.33
2022-08-08T06:39:21.905Z,1019.26
2022-08-08T06:40:20.555Z,1019.25
2022-08-08T06:41:21.554Z,1019.32
2022-08-08T06:42:20.545Z,1019.29
2022-08-08T06:43:20.550Z,1019.30
2022-08-08T06:44:25.110Z,1019.31
2022-08-08T06:45:20.491Z,1019.31
2022-08-08T06:46:23.798Z,1019.30
2022-08-08T06:47:33.494Z,1019.34
2022-08-08T06:48:21.643Z,1019.32
2022-08-08T06:49:54.819Z,1019.32
2022-08-08T06:50:32.461Z,1019.32
2022-08-08T06:51:22.279Z,1019.33
2022-08-08T06:52:20.421Z,1019.35
2022-08-08T06:53:20.905Z,1019.36
2022-08-08T06:54:20.424Z,1019.33
2022-08-08T06:55:20.410Z,1019.37
2022-08-08T06:56:23.118Z,1019.37
2022-08-08T06:57:20.371Z,1019.38
2022-08-08T06:58:20.391Z,1019.34
2022-08-08T06:59:20.352Z,1019.32
2022-08-08T07:00:30.078Z,1019.40
2022-08-08T07:02:17.389Z,1019.37
2022-08-08T07:02:28.727Z,1019.41
2022-08-08T07:03:52.579Z,1019.39
2022-08-08T07:04:41.497Z,1019.45
2022-08-08T07:05:24.629Z,1019.43
2022-08-08T07:06:20.278Z,1019.41
2022-08-08T07:07:20.287Z,1019.45
2022-08-08T07:08:20.257Z,1019.44
2022-08-08T07:09:20.928Z,1019.42
2022-08-08T07:10:20.238Z,1019.44
2022-08-08T07:11:22.214Z,1019.44
2022-08-08T07:12:20.216Z,1019.43
2022-08-08T07:13:22.947Z,1019.42
2022-08-08T07:14:21.176Z,1019.41
2022-08-08T07:15:41.180Z,1019.45
2022-08-08T07:16:21.163Z,1019.49
2022-08-08T07:17:21.147Z,1019.46
2022-08-08T07:18:36.789Z,1019.49
2022-08-08T07:19:21.125Z,1019.51
2022-08-08T07:20:20.162Z,1019.51
2022-08-08T07:21:21.117Z,1019.46
2022-08-08T07:22:20.173Z,1019.52
2022-08-08T07:23:23.574Z,1019.52
2022-08-08T07:24:20.209Z,1019.51
2022-08-08T07:25:20.079Z,1019.46
2022-08-08T07:26:28.838Z,1019.50
2022-08-08T07:27:21.042Z,1019.54
2022-08-08T07:28:21.039Z,1019.52
2022-08-08T07:29:20.429Z,1019.50
2022-08-08T07:30:25.383Z,1019.48
2022-08-08T07:31:21.011Z,1019.45
2022-08-08T07:32:22.311Z,1019.48
2022-08-08T07:33:19.993Z,1019.49
2022-08-08T07:34:31.279Z,1019.49
2022-08-08T07:35:20.976Z,1019.56
2022-08-08T07:36:19.988Z,1019.54
2022-08-08T07:37:20.317Z,1019.54
2022-08-08T07:38:21.122Z,1019.55
2022-08-08T07:39:22.539Z,1019.60
2022-08-08T07:40:29.855Z,1019.61
2022-08-08T07:41:24.967Z,1019.60
2022-08-08T07:42:19.904Z,1019.60
2022-08-08T07:43:23.225Z,1019.62
2022-08-08T07:44:40.767Z,1019.62
2022-08-08T07:45:20.873Z,1019.63
2022-08-08T07:46:30.146Z,1019.64
2022-08-08T07:47:29.015Z,1019.64
2022-08-08T07:48:20.826Z,1019.60
2022-08-08T07:49:19.823Z,1019.66
2022-08-08T07:50:23.306Z,1019.65
2022-08-08T07:51:23.756Z,1019.70
2022-08-08T07:52:23.352Z,1019.71
2022-08-08T07:53:52.095Z,1019.70
2022-08-08T07:54:26.775Z,1019.73
2022-08-08T07:55:20.769Z,1019.72
2022-08-08T07:56:36.065Z,1019.72
2022-08-08T07:57:21.137Z,1019.74
2022-08-08T07:58:19.737Z,1019.68
2022-08-08T07:59:20.122Z,1019.75
2022-08-08T08:00:19.721Z,1019.77
2022-08-08T08:01:19.873Z,1019.78
2022-08-08T08:02:32.927Z,1019.79
2022-08-08T08:03:24.039Z,1019.78
2022-08-08T08:04:20.665Z,1019.80
2022-08-08T08:05:19.677Z,1019.79
2022-08-08T08:06:19.652Z,1019.80
2022-08-08T08:07:22.664Z,1019.85
2022-08-08T08:08:20.765Z,1019.83
2022-08-08T08:09:19.619Z,1019.77
2022-08-08T08:10:30.015Z,1019.78
2022-08-08T08:11:21.195Z,1019.83
2022-08-08T08:12:36.842Z,1019.84
2022-08-08T08:13:25.679Z,1019.83
2022-08-08T08:14:20.597Z,1019.86
2022-08-08T08:15:23.208Z,1019.85
2022-08-08T08:16:19.732Z,1019.82
2022-08-08T08:17:28.808Z,1019.80
2022-08-08T08:18:31.692Z,1019.77
2022-08-08T08:19:21.260Z,1019.80
2022-08-08T08:20:19.524Z,1019.77
2022-08-08T08:21:19.504Z,1019.81
2022-08-08T08:22:31.214Z,1019.76
2022-08-08T08:23:20.491Z,1019.80
2022-08-08T08:24:20.495Z,1019.80
2022-08-08T08:25:43.177Z,1019.82
2022-08-08T08:26:27.503Z,1019.83
2022-08-08T08:27:20.455Z,1019.84
2022-08-08T08:28:23.807Z,1019.77
2022-08-08T08:29:19.703Z,1019.78
2022-08-08T08:30:19.473Z,1019.82
2022-08-08T08:31:19.426Z,1019.84
2022-08-08T08:32:31.805Z,1019.87
2022-08-08T08:33:20.398Z,1019.84
2022-08-08T08:34:21.237Z,1019.87
2022-08-08T08:35:21.372Z,1019.88
2022-08-08T08:36:21.959Z,1019.90
2022-08-08T08:37:20.796Z,1019.88
2022-08-08T08:38:19.849Z,1019.83
2022-08-08T08:39:22.909Z,1019.85
2022-08-08T08:40:19.458Z,1019.88
2022-08-08T08:41:20.062Z,1019.90
2022-08-08T08:42:32.143Z,1019.87
2022-08-08T08:43:20.295Z,1019.88
2022-08-08T08:44:20.281Z,1019.87
2022-08-08T08:45:21.914Z,1019.89
2022-08-08T08:46:19.265Z,1019.88
2022-08-08T08:47:20.370Z,1019.93
2022-08-08T08:48:19.902Z,1019.92
2022-08-08T08:49:19.236Z,1019.89
2022-08-08T08:50:33.975Z,1019.90
2022-08-08T08:51:20.222Z,1019.90
2022-08-08T08:52:20.570Z,1019.90
2022-08-08T08:53:54.245Z,1019.89
2022-08-08T08:54:20.237Z,1019.84
2022-08-08T08:55:20.340Z,1019.90
2022-08-08T08:56:24.143Z,1019.87
2022-08-08T08:57:20.162Z,1019.86
2022-08-08T08:58:19.151Z,1019.82
2022-08-08T08:59:23.647Z,1019.85
2022-08-08T09:00:20.315Z,1019.84
2022-08-08T09:01:19.223Z,1019.83
2022-08-08T09:02:19.197Z,1019.87
2022-08-08T09:03:19.488Z,1019.86
2022-08-08T09:04:31.878Z,1019.85
2022-08-08T09:05:49.304Z,1019.87
2022-08-08T09:06:28.507Z,1019.89
2022-08-08T09:07:20.080Z,1019.93
2022-08-08T09:08:21.004Z,1019.91
2022-08-08T09:09:35.314Z,1019.89
2022-08-08T09:10:21.313Z,1019.90
2022-08-08T09:11:19.029Z,1019.91
2022-08-08T09:12:19.767Z,1019.93
2022-08-08T09:13:25.294Z,1019.91
2022-08-08T09:14:19.999Z,1019.89
2022-08-08T09:15:41.418Z,1019.86
2022-08-08T09:16:19.988Z,1019.81
2022-08-08T09:17:23.627Z,1019.83
2022-08-08T09:18:19.977Z,1019.84
2022-08-08T09:19:33.937Z,1019.88
2022-08-08T09:21:56.134Z,1019.84
2022-08-08T09:22:01.477Z,1019.86
2022-08-08T09:22:27.085Z,1019.88
2022-08-08T09:23:25.845Z,1019.84
2022-08-08T09:24:19.908Z,1019.84
2022-08-08T09:25:18.918Z,1019.83
2022-08-08T09:26:18.890Z,1019.83
2022-08-08T09:27:20.919Z,1019.81
2022-08-08T09:28:37.875Z,1019.82
2022-08-08T09:29:22.661Z,1019.78
2022-08-08T09:30:20.046Z,1019.77
2022-08-08T09:31:18.869Z,1019.79
2022-08-08T09:32:19.486Z,1019.73
2022-08-08T09:34:14.774Z,1019.73
2022-08-08T09:34:32.626Z,1019.72
2022-08-08T09:35:19.815Z,1019.65
2022-08-08T09:36:19.797Z,1019.80
2022-08-08T09:37:46.232Z,1019.76
2022-08-08T09:38:19.776Z,1019.79
2022-08-08T09:39:18.946Z,1019.78
2022-08-08T09:40:18.927Z,1019.75
2022-08-08T09:41:18.803Z,1019.63
2022-08-08T09:42:22.265Z,1019.66
2022-08-08T09:43:23.891Z,1019.68
2022-08-08T09:44:34.004Z,1019.70
2022-08-08T09:45:54.123Z,1019.73
2022-08-08T09:46:25.835Z,1019.77
2022-08-08T09:48:03.045Z,1019.79
2022-08-08T09:48:26.153Z,1019.71
2022-08-08T09:49:42.884Z,1019.81
2022-08-08T09:50:19.852Z,1019.79
2022-08-08T09:51:18.653Z,1019.82
2022-08-08T09:52:56.146Z,1019.73
2022-08-08T09:53:31.917Z,1019.81
2022-08-08T09:54:36.878Z,1019.78
2022-08-08T09:55:51.747Z,1019.77
2022-08-08T09:56:25.009Z,1019.77
2022-08-08T09:57:19.597Z,1019.73
2022-08-08T09:58:25.782Z,1019.73
2022-08-08T09:59:48.212Z,1019.58
2022-08-08T10:00:50.213Z,1019.69
2022-08-08T10:01:58.271Z,1019.70
2022-08-08T10:02:19.547Z,1019.65
2022-08-08T10:03:19.846Z,1019.60
2022-08-08T10:04:38.748Z,1019.61
2022-08-08T10:05:25.124Z,1019.61
2022-08-08T10:06:19.517Z,1019.66
2022-08-08T10:07:19.499Z,1019.63
2022-08-08T10:08:18.488Z,1019.74
2022-08-08T10:09:18.482Z,1019.71
2022-08-08T10:10:18.485Z,1019.74
2022-08-08T10:12:26.351Z,1019.57
2022-08-08T10:12:28.026Z,1019.63
2022-08-08T10:13:19.445Z,1019.64
2022-08-08T10:14:28.124Z,1019.60
2022-08-08T10:15:19.441Z,1019.58
2022-08-08T10:16:18.422Z,1019.67
2022-08-08T10:17:56.834Z,1019.61
2022-08-08T10:18:25.507Z,1019.60
2022-08-08T10:19:19.383Z,1019.69
2022-08-08T10:20:18.389Z,1019.67
2022-08-08T10:21:26.162Z,1019.65
2022-08-08T10:22:19.355Z,1019.63
2022-08-08T10:23:41.212Z,1019.63
2022-08-08T10:24:29.948Z,1019.66
2022-08-08T10:25:19.338Z,1019.61
2022-08-08T10:26:30.120Z,1019.66
2022-08-08T10:27:19.316Z,1019.57
2022-08-08T10:28:18.296Z,1019.63
2022-08-08T10:29:21.136Z,1019.59
2022-08-08T10:30:59.696Z,1019.55
2022-08-08T10:31:19.268Z,1019.54
2022-08-08T10:32:19.257Z,1019.49
2022-08-08T10:33:18.259Z,1019.42
2022-08-08T10:34:21.033Z,1019.48
2022-08-08T10:36:01.890Z,1019.47
2022-08-08T10:36:22.190Z,1019.43
2022-08-08T10:37:18.204Z,1019.39
2022-08-08T10:38:18.199Z,1019.44
2022-08-08T10:39:18.260Z,1019.40
2022-08-08T10:40:19.891Z,1019.34
2022-08-08T10:41:20.062Z,1019.39
2022-08-08T10:42:18.160Z,1019.37
2022-08-08T10:43:18.161Z,1019.35
2022-08-08T10:44:18.164Z,1019.33
2022-08-08T10:45:18.126Z,1019.32
2022-08-08T10:46:27.640Z,1019.36
2022-08-08T10:47:21.145Z,1019.35
2022-08-08T10:48:18.098Z,1019.36
2022-08-08T10:50:00.035Z,1019.37
2022-08-08T10:50:19.077Z,1019.34
2022-08-08T10:51:18.066Z,1019.42
2022-08-08T10:52:18.060Z,1019.37
2022-08-08T10:53:19.111Z,1019.37
2022-08-08T10:54:19.048Z,1019.40
2022-08-08T10:55:39.818Z,1019.37
2022-08-08T10:56:27.827Z,1019.35
2022-08-08T10:57:41.369Z,1019.36
2022-08-08T10:58:19.000Z,1019.36
2022-08-08T10:59:17.993Z,1019.30
2022-08-08T11:00:18.004Z,1019.31
2022-08-08T11:01:18.057Z,1019.32
2022-08-08T11:02:17.984Z,1019.31
2022-08-08T11:03:17.953Z,1019.29
2022-08-08T11:04:17.944Z,1019.29
2022-08-08T11:05:18.935Z,1019.29
2022-08-08T11:06:17.913Z,1019.28
2022-08-08T11:07:40.618Z,1019.31
2022-08-08T11:08:30.730Z,1019.34
2022-08-08T11:09:19.775Z,1019.30
2022-08-08T11:10:19.858Z,1019.36
2022-08-08T11:12:00.106Z,1019.38
2022-08-08T11:12:18.850Z,1019.37
2022-08-08T11:13:33.708Z,1019.36
2022-08-08T11:14:20.829Z,1019.34
2022-08-08T11:15:18.818Z,1019.30
2022-08-08T11:16:32.260Z,1019.32
2022-08-08T11:17:58.806Z,1019.31
2022-08-08T11:18:18.788Z,1019.28
2022-08-08T11:19:18.082Z,1019.31
2022-08-08T11:20:21.445Z,1019.30
2022-08-08T11:21:19.762Z,1019.33
2022-08-08T11:22:17.752Z,1019.29
2022-08-08T11:23:17.765Z,1019.31
2022-08-08T11:24:17.740Z,1019.33
2022-08-08T11:25:17.805Z,1019.31
2022-08-08T11:26:18.889Z,1019.29
2022-08-08T11:27:23.084Z,1019.35
2022-08-08T11:28:18.910Z,1019.31
2022-08-08T11:29:17.683Z,1019.25
2022-08-08T11:30:24.622Z,1019.32
2022-08-08T11:31:18.650Z,1019.25
2022-08-08T11:32:17.643Z,1019.31
2022-08-08T11:33:17.827Z,1019.27
2022-08-08T11:34:24.082Z,1019.24
2022-08-08T11:35:24.880Z,1019.23
2022-08-08T11:36:18.625Z,1019.21
2022-08-08T11:37:17.666Z,1019.24
2022-08-08T11:38:38.906Z,1019.23
2022-08-08T11:39:20.008Z,1019.24
2022-08-08T11:40:22.357Z,1019.25
2022-08-08T11:41:18.584Z,1019.22
2022-08-08T11:42:17.549Z,1019.21
2022-08-08T11:43:17.525Z,1019.23
2022-08-08T11:44:17.528Z,1019.25
2022-08-08T11:45:18.627Z,1019.22
2022-08-08T11:46:19.674Z,1019.28
2022-08-08T11:47:17.604Z,1019.25
2022-08-08T11:48:20.612Z,1019.28
2022-08-08T11:49:17.496Z,1019.23
2022-08-08T11:50:23.133Z,1019.24
2022-08-08T11:51:30.467Z,1019.22
2022-08-08T11:52:27.406Z,1019.21
2022-08-08T11:53:18.423Z,1019.18
2022-08-08T11:54:31.390Z,1019.17
2022-08-08T11:55:18.402Z,1019.18
2022-08-08T11:56:17.395Z,1019.18
2022-08-08T11:57:17.651Z,1019.21
2022-08-08T11:58:18.370Z,1019.19
2022-08-08T11:59:17.372Z,1019.22
2022-08-08T12:00:18.443Z,1019.20
2022-08-08T12:01:17.452Z,1019.17
2022-08-08T12:02:31.692Z,1019.13
2022-08-08T12:03:21.288Z,1019.15
2022-08-08T12:04:17.318Z,1019.17